Time;durP1;ratioP1;P1;durP2;ratioP2;P2;SDS_P1;SDS_P2;PMS_P1;PMS_P2;Temp;Humidity;BMP_temperature;BMP_pressure;BME280_temperature;BME280_humidity;BME280_pressure;Samples;Min_cycle;Max_cycle;Signal;HPM_P1;HPM_P2
2021/09/28 00:00:44;;;;;;;9.35;3.05;;;;;;;14.59;95.14;102089.69;4977756;28;20133;-62
2021/09/28 00:03:10;;;;;;;12.45;3.55;;;;;;;14.35;97.21;102084.00;4979125;28;20116;-62
2021/09/28 00:05:37;;;;;;;21.27;3.88;;;;;;;13.53;100.00;102090.44;4978338;28;20054;-62
2021/09/28 00:08:04;;;;;;;10.98;3.60;;;;;;;13.58;100.00;102090.88;4980075;28;20578;-62
2021/09/28 00:10:31;;;;;;;14.50;4.50;;;;;;;14.36;100.00;102093.56;4979052;28;20144;-61
2021/09/28 00:12:58;;;;;;;12.50;3.47;;;;;;;13.77;100.00;102093.53;4965462;28;20694;-61
2021/09/28 00:15:24;;;;;;;12.23;3.35;;;;;;;14.14;100.00;102087.59;4981200;28;20331;-60
2021/09/28 00:17:51;;;;;;;12.43;3.42;;;;;;;15.57;90.53;102090.16;4972068;28;20142;-62
2021/09/28 00:20:17;;;;;;;13.00;3.03;;;;;;;14.87;92.02;102094.22;4973027;28;20093;-61
2021/09/28 00:22:44;;;;;;;13.70;3.60;;;;;;;13.75;100.00;102100.75;4978957;28;20077;-60
2021/09/28 00:25:10;;;;;;;17.65;3.65;;;;;;;13.25;100.00;102106.84;4978684;28;20054;-62
2021/09/28 00:27:37;;;;;;;13.68;3.75;;;;;;;12.98;100.00;102104.75;4971438;28;20128;-61
2021/09/28 00:30:04;;;;;;;11.80;3.65;;;;;;;12.78;100.00;102113.50;4976695;28;20058;-61
2021/09/28 00:32:31;;;;;;;11.13;3.15;;;;;;;12.64;100.00;102107.63;4976849;28;20085;-61
2021/09/28 00:34:57;;;;;;;15.15;3.28;;;;;;;12.56;100.00;102106.56;4976864;28;20077;-61
2021/09/28 00:37:24;;;;;;;15.13;3.55;;;;;;;12.45;100.00;102118.00;4982022;28;20092;-60
2021/09/28 00:39:51;;;;;;;13.10;3.65;;;;;;;12.34;100.00;102116.25;4969367;28;20466;-62
2021/09/28 00:42:18;;;;;;;10.93;3.80;;;;;;;12.29;100.00;102115.81;4969623;28;20167;-62
2021/09/28 00:44:45;;;;;;;16.17;3.35;;;;;;;12.62;100.00;102119.22;4978555;28;20424;-60
2021/09/28 00:47:13;;;;;;;12.45;3.58;;;;;;;12.41;100.00;102125.31;5000904;23;20478;-62
2021/09/28 00:49:45;;;;;;;10.57;3.00;;;;;;;12.34;100.00;102123.31;4993503;28;20391;-60
2021/09/28 00:52:15;;;;;;;8.60;3.17;;;;;;;12.34;100.00;102124.13;5007005;28;20109;-61
2021/09/28 00:54:44;;;;;;;12.20;3.25;;;;;;;12.29;100.00;102126.34;4996465;28;20050;-61
2021/09/28 00:57:13;;;;;;;11.60;3.38;;;;;;;13.08;100.00;102125.88;5008811;28;20046;-61
2021/09/28 00:59:40;;;;;;;11.27;2.90;;;;;;;12.62;100.00;102124.47;4995416;28;20145;-59
2021/09/28 01:02:08;;;;;;;13.30;3.23;;;;;;;12.39;100.00;102127.25;5000864;28;20057;-60
2021/09/28 01:04:35;;;;;;;9.30;3.45;;;;;;;13.71;100.00;102124.91;4993978;28;20556;-61
2021/09/28 01:07:04;;;;;;;6.78;2.53;;;;;;;13.96;100.00;102131.50;5008330;28;20477;-61
2021/09/28 01:09:32;;;;;;;12.52;3.35;;;;;;;14.30;99.75;102126.63;5004753;28;20057;-61
2021/09/28 01:11:59;;;;;;;9.20;3.20;;;;;;;14.20;99.01;102121.34;4997569;28;20107;-61
2021/09/28 01:14:26;;;;;;;14.82;3.33;;;;;;;14.13;99.31;102124.69;5003028;28;20053;-61
2021/09/28 01:16:52;;;;;;;9.50;3.08;;;;;;;14.32;98.31;102134.41;4991783;28;20145;-62
2021/09/28 01:19:19;;;;;;;12.73;2.60;;;;;;;14.20;98.35;102131.09;4997789;28;20988;-61
2021/09/28 01:21:46;;;;;;;12.10;2.90;;;;;;;13.11;100.00;102136.13;5005434;28;20149;-60
2021/09/28 01:24:13;;;;;;;13.68;3.13;;;;;;;13.72;100.00;102135.31;5002952;28;20152;-61
2021/09/28 01:26:41;;;;;;;17.88;3.38;;;;;;;13.38;100.00;102138.25;5002104;28;20140;-60
2021/09/28 01:29:08;;;;;;;10.63;2.83;;;;;;;13.04;100.00;102137.66;4996625;28;20084;-61
2021/09/28 01:31:37;;;;;;;11.38;2.78;;;;;;;13.16;100.00;102135.78;4997776;28;20113;-61
2021/09/28 01:34:05;;;;;;;12.13;2.92;;;;;;;13.75;100.00;102134.22;4991567;28;20054;-61
2021/09/28 01:36:32;;;;;;;12.98;2.63;;;;;;;14.00;99.68;102133.69;5004040;28;20172;-62
2021/09/28 01:39:04;;;;;;;8.50;2.70;;;;;;;13.64;100.00;102136.00;4996201;28;20132;-62
2021/09/28 01:41:31;;;;;;;10.85;3.10;;;;;;;12.82;100.00;102136.81;4997883;28;20574;-62
2021/09/28 01:44:09;;;;;;;11.63;3.00;;;;;;;12.49;100.00;102137.03;4991971;28;20132;-62
2021/09/28 01:46:40;;;;;;;22.20;3.22;;;;;;;12.20;100.00;102141.06;4997235;28;20589;-60
2021/09/28 01:49:09;;;;;;;14.23;3.05;;;;;;;13.36;100.00;102134.91;4987680;28;20046;-62
2021/09/28 01:51:36;;;;;;;11.75;3.05;;;;;;;12.41;100.00;102143.72;4988075;28;20517;-61
2021/09/28 01:54:03;;;;;;;11.02;3.35;;;;;;;13.98;100.00;102138.28;4985529;28;20050;-60
2021/09/28 01:56:30;;;;;;;7.57;2.45;;;;;;;14.58;93.00;102137.34;4985556;28;20104;-61
2021/09/28 01:58:59;;;;;;;22.92;2.97;;;;;;;14.84;90.49;102137.59;4980684;28;20050;-62
2021/09/28 02:01:26;;;;;;;17.25;3.42;;;;;;;14.31;91.44;102140.66;4981291;28;20093;-62
2021/09/28 02:03:57;;;;;;;15.70;2.67;;;;;;;12.93;100.00;102135.09;4987846;28;20082;-61
2021/09/28 02:06:24;;;;;;;10.57;2.90;;;;;;;12.42;100.00;102144.56;4992320;28;20061;-60
2021/09/28 02:08:51;;;;;;;14.40;3.05;;;;;;;12.16;100.00;102141.44;4985567;28;20165;-62
2021/09/28 02:11:18;;;;;;;11.02;3.65;;;;;;;13.64;99.37;102133.34;4988788;28;20475;-62
2021/09/28 02:13:45;;;;;;;14.65;3.60;;;;;;;14.10;95.41;102127.63;4982330;28;20058;-62
2021/09/28 02:16:12;;;;;;;10.68;2.58;;;;;;;12.77;100.00;102135.53;5008356;28;20149;-62
2021/09/28 02:18:38;;;;;;;7.68;2.63;;;;;;;12.20;100.00;102142.84;4983346;28;20116;-61
2021/09/28 02:21:05;;;;;;;15.30;3.30;;;;;;;11.91;100.00;102147.84;4995121;28;20184;-60
2021/09/28 02:23:31;;;;;;;10.60;2.88;;;;;;;11.74;100.00;102150.00;4988455;28;20058;-61
2021/09/28 02:26:00;;;;;;;10.75;2.95;;;;;;;11.70;100.00;102150.34;4979844;28;20121;-61
2021/09/28 02:28:27;;;;;;;14.43;3.08;;;;;;;11.58;100.00;102145.09;4982412;28;20515;-62
2021/09/28 02:30:53;;;;;;;9.25;2.50;;;;;;;11.87;100.00;102148.03;4977252;28;20502;-62
2021/09/28 02:33:20;;;;;;;10.30;2.63;;;;;;;11.79;100.00;102147.00;4989098;28;20625;-62
2021/09/28 02:35:47;;;;;;;13.20;3.65;;;;;;;13.20;100.00;102150.34;4980032;28;20046;-62
2021/09/28 02:38:13;;;;;;;6.78;2.70;;;;;;;12.59;100.00;102145.81;4988165;28;20469;-62
2021/09/28 02:40:40;;;;;;;10.25;2.55;;;;;;;11.94;100.00;102147.59;4981036;28;20253;-61
2021/09/28 02:43:06;;;;;;;9.20;2.72;;;;;;;11.68;100.00;102153.06;4980321;28;20046;-61
2021/09/28 02:45:36;;;;;;;11.23;2.55;;;;;;;11.48;100.00;102150.22;4983982;28;20646;-62
2021/09/28 02:48:03;;;;;;;11.40;2.83;;;;;;;11.65;100.00;102154.16;4983980;28;20052;-61
2021/09/28 02:50:34;;;;;;;8.60;3.00;;;;;;;11.37;100.00;102155.50;4982030;28;20050;-61
2021/09/28 02:53:02;;;;;;;11.52;2.90;;;;;;;11.26;100.00;102158.13;4980185;28;20490;-61
2021/09/28 02:55:29;;;;;;;10.55;3.17;;;;;;;11.16;100.00;102154.53;4984144;28;20742;-62
2021/09/28 02:57:56;;;;;;;12.98;2.90;;;;;;;11.15;100.00;102156.28;4989123;28;20229;-62
2021/09/28 03:00:22;;;;;;;8.93;2.58;;;;;;;11.11;100.00;102157.47;4977917;28;20129;-60
2021/09/28 03:02:49;;;;;;;14.13;2.40;;;;;;;12.24;100.00;102162.69;4989669;28;20196;-62
2021/09/28 03:05:16;;;;;;;8.35;2.17;;;;;;;12.24;100.00;102163.53;4974557;28;20100;-61
2021/09/28 03:07:42;;;;;;;8.65;3.10;;;;;;;11.54;100.00;102159.41;4990404;28;20165;-60
2021/09/28 03:10:09;;;;;;;8.35;2.50;;;;;;;11.28;100.00;102162.28;4986474;28;20089;-62
2021/09/28 03:12:36;;;;;;;11.48;2.40;;;;;;;12.60;100.00;102164.13;4988716;28;20054;-60
2021/09/28 03:15:03;;;;;;;10.25;2.75;;;;;;;12.59;100.00;102165.06;4985353;28;20077;-62
2021/09/28 03:17:30;;;;;;;9.10;2.95;;;;;;;11.55;100.00;102163.72;4982033;28;20156;-61
2021/09/28 03:19:56;;;;;;;9.35;2.55;;;;;;;11.27;100.00;102165.88;4983675;28;20053;-62
2021/09/28 03:22:23;;;;;;;8.82;2.85;;;;;;;12.99;100.00;102171.44;4987352;28;20133;-62
2021/09/28 03:24:49;;;;;;;11.88;2.75;;;;;;;12.47;100.00;102168.72;4988540;28;20132;-61
2021/09/28 03:27:15;;;;;;;13.05;3.40;;;;;;;12.20;100.00;102171.78;4987472;28;20157;-62
2021/09/28 03:29:42;;;;;;;11.57;2.90;;;;;;;12.27;100.00;102168.53;5005027;28;20640;-61
2021/09/28 03:32:08;;;;;;;11.43;2.88;;;;;;;12.56;100.00;102177.63;4987434;28;20070;-61
2021/09/28 03:34:37;;;;;;;8.38;2.60;;;;;;;11.55;100.00;102176.88;4979090;28;20081;-60
2021/09/28 03:37:04;;;;;;;8.13;2.90;;;;;;;11.23;100.00;102174.09;4993718;28;20053;-62
2021/09/28 03:39:32;;;;;;;9.80;2.85;;;;;;;11.10;100.00;102173.38;4983142;28;20568;-62
2021/09/28 03:42:01;;;;;;;15.35;3.33;;;;;;;11.60;100.00;102180.00;4991368;28;20053;-61
2021/09/28 03:44:27;;;;;;;9.65;2.72;;;;;;;11.04;100.00;102185.19;4989362;28;20058;-62
2021/09/28 03:46:54;;;;;;;5.95;2.13;;;;;;;10.87;100.00;102184.66;4985637;28;20366;-61
2021/09/28 03:49:20;;;;;;;11.85;3.58;;;;;;;10.78;100.00;102184.50;4987836;28;20178;-61
2021/09/28 03:51:47;;;;;;;12.02;2.80;;;;;;;11.07;100.00;102182.31;4984718;28;20492;-61
2021/09/28 03:54:14;;;;;;;10.98;2.72;;;;;;;12.31;100.00;102189.31;4988379;28;20157;-62
2021/09/28 03:56:40;;;;;;;5.50;2.40;;;;;;;12.39;100.00;102179.88;4986227;28;20060;-62
2021/09/28 03:59:06;;;;;;;8.02;2.47;;;;;;;12.63;100.00;102186.72;4983223;28;20855;-62
2021/09/28 04:01:34;;;;;;;14.50;2.58;;;;;;;12.75;98.77;102193.59;4984546;28;20144;-60
2021/09/28 04:04:00;;;;;;;11.63;2.95;;;;;;;12.49;100.00;102193.13;4986927;28;20506;-61
2021/09/28 04:06:27;;;;;;;6.88;1.95;;;;;;;12.84;100.00;102195.47;4993883;28;20133;-62
2021/09/28 04:08:53;;;;;;;16.98;2.83;;;;;;;11.82;100.00;102202.78;4986564;28;20058;-60
2021/09/28 04:11:20;;;;;;;14.88;3.20;;;;;;;12.18;100.00;102203.47;4991425;28;20509;-62
2021/09/28 04:13:48;;;;;;;9.82;2.28;;;;;;;13.63;94.73;102194.13;4975097;28;20454;-61
2021/09/28 04:16:16;;;;;;;9.77;2.60;;;;;;;12.46;100.00;102206.50;4989691;28;20507;-61
2021/09/28 04:18:45;;;;;;;12.40;2.50;;;;;;;11.63;100.00;102205.19;4980743;28;20077;-61
2021/09/28 04:21:12;;;;;;;10.60;2.22;;;;;;;11.22;100.00;102207.41;4988167;28;20485;-60
2021/09/28 04:23:39;;;;;;;11.93;1.95;;;;;;;11.06;100.00;102201.66;4984493;28;20061;-61
2021/09/28 04:26:05;;;;;;;14.60;2.35;;;;;;;10.96;100.00;102200.69;4985904;28;21047;-62
2021/09/28 04:28:33;;;;;;;10.38;2.50;;;;;;;10.86;100.00;102217.13;4988401;28;20120;-61
2021/09/28 04:31:00;;;;;;;15.00;3.47;;;;;;;10.89;100.00;102213.41;4984835;28;20050;-60
2021/09/28 04:33:27;;;;;;;10.65;2.40;;;;;;;10.81;100.00;102213.16;4998018;28;20057;-62
2021/09/28 04:35:53;;;;;;;8.48;2.13;;;;;;;10.70;100.00;102208.69;4984194;28;20077;-61
2021/09/28 04:38:20;;;;;;;18.88;2.40;;;;;;;10.66;100.00;102210.72;4984420;28;20057;-62
2021/09/28 04:40:46;;;;;;;6.28;1.98;;;;;;;10.75;100.00;102210.97;4981284;28;20054;-63
2021/09/28 04:43:12;;;;;;;7.38;2.17;;;;;;;11.17;100.00;102206.09;4986147;28;20933;-62
2021/09/28 04:45:40;;;;;;;11.65;2.30;;;;;;;11.11;100.00;102207.38;4990807;28;20054;-59
2021/09/28 04:48:06;;;;;;;10.07;2.38;;;;;;;10.83;100.00;102216.50;4979882;28;20058;-62
2021/09/28 04:50:33;;;;;;;9.48;2.20;;;;;;;10.75;100.00;102213.59;4988988;28;20581;-62
2021/09/28 04:52:59;;;;;;;10.57;2.30;;;;;;;10.76;100.00;102225.75;4979160;28;20157;-61
2021/09/28 04:55:26;;;;;;;11.40;2.78;;;;;;;12.13;100.00;102210.06;4983425;28;20086;-62
2021/09/28 04:57:53;;;;;;;10.40;2.22;;;;;;;11.22;100.00;102209.22;4977688;28;20465;-61
2021/09/28 05:00:20;;;;;;;10.88;2.40;;;;;;;10.93;100.00;102211.41;4990349;28;20077;-62
2021/09/28 05:02:46;;;;;;;12.80;2.38;;;;;;;10.74;100.00;102218.03;4988110;28;20475;-62
2021/09/28 05:05:13;;;;;;;8.77;2.65;;;;;;;10.67;100.00;102216.78;4982863;28;20057;-61
2021/09/28 05:07:39;;;;;;;12.23;2.78;;;;;;;10.60;100.00;102218.19;4986315;28;20459;-61
2021/09/28 05:10:06;;;;;;;11.93;3.60;;;;;;;10.99;100.00;102219.63;4975909;28;20185;-61
2021/09/28 05:12:33;;;;;;;10.30;3.53;;;;;;;10.68;100.00;102218.44;4986260;28;20189;-61
2021/09/28 05:14:59;;;;;;;14.48;3.45;;;;;;;11.75;100.00;102225.25;4986238;28;20144;-62
2021/09/28 05:17:26;;;;;;;7.00;1.98;;;;;;;11.71;100.00;102225.63;4985023;28;20153;-62
2021/09/28 05:19:52;;;;;;;10.32;2.28;;;;;;;13.09;98.46;102232.09;4989845;28;20053;-62
2021/09/28 05:22:19;;;;;;;11.15;2.65;;;;;;;11.68;100.00;102238.03;4979303;28;20085;-62
2021/09/28 05:24:45;;;;;;;10.23;2.50;;;;;;;11.08;100.00;102241.75;4985957;28;20060;-62
2021/09/28 05:27:14;;;;;;;12.80;2.40;;;;;;;10.80;100.00;102242.97;4981585;28;20050;-61
2021/09/28 05:29:41;;;;;;;11.60;2.50;;;;;;;10.70;100.00;102242.78;4990182;28;20684;-61
2021/09/28 05:32:08;;;;;;;8.55;2.42;;;;;;;11.39;100.00;102247.34;4980228;28;20141;-62
2021/09/28 05:34:34;;;;;;;6.50;1.80;;;;;;;12.86;99.38;102248.84;4985379;28;20054;-62
2021/09/28 05:37:01;;;;;;;9.02;2.20;;;;;;;12.66;96.65;102249.63;4979714;28;20086;-60
2021/09/28 05:39:27;;;;;;;7.80;2.30;;;;;;;12.75;96.43;102242.78;4983235;28;20062;-62
2021/09/28 05:41:54;;;;;;;12.15;2.75;;;;;;;12.35;96.53;102238.97;4989402;28;20145;-61
2021/09/28 05:44:20;;;;;;;9.18;2.58;;;;;;;11.71;100.00;102239.59;4978901;28;20137;-58
2021/09/28 05:46:47;;;;;;;12.65;2.30;;;;;;;11.56;100.00;102246.03;4987246;28;20081;-62
2021/09/28 05:49:13;;;;;;;12.90;4.05;;;;;;;12.11;100.00;102254.88;4976041;28;20148;-62
2021/09/28 05:51:51;;;;;;;9.05;3.65;;;;;;;11.70;100.00;102255.47;4979965;28;20050;-62
2021/09/28 05:54:19;;;;;;;12.18;4.97;;;;;;;11.83;100.00;102251.78;4986290;28;20056;-61
2021/09/28 05:56:47;;;;;;;15.60;8.13;;;;;;;12.74;94.69;102246.38;4980267;28;20082;-62
2021/09/28 05:59:14;;;;;;;19.75;7.03;;;;;;;12.70;94.36;102248.44;4990461;28;20665;-62
2021/09/28 06:01:40;;;;;;;14.52;5.65;;;;;;;12.15;98.09;102253.72;4982245;28;20054;-62
2021/09/28 06:04:07;;;;;;;7.88;3.45;;;;;;;13.36;93.42;102256.13;4982998;28;20427;-62
2021/09/28 06:06:34;;;;;;;5.03;2.30;;;;;;;12.17;97.81;102253.56;4984418;28;20549;-62
2021/09/28 06:09:01;;;;;;;7.35;2.70;;;;;;;11.32;100.00;102260.09;4987192;28;20061;-62
2021/09/28 06:11:30;;;;;;;10.63;2.83;;;;;;;11.81;100.00;102253.69;4994005;28;20469;-62
2021/09/28 06:13:56;;;;;;;12.52;2.75;;;;;;;12.29;100.00;102251.75;4988285;28;20055;-62
2021/09/28 06:16:23;;;;;;;12.80;2.85;;;;;;;11.80;100.00;102264.31;4984123;28;20141;-62
2021/09/28 06:18:50;;;;;;;10.43;2.78;;;;;;;11.45;100.00;102260.84;4975078;28;20050;-62
2021/09/28 06:21:16;;;;;;;9.25;2.30;;;;;;;11.41;100.00;102255.94;4987203;28;20170;-62
2021/09/28 06:23:43;;;;;;;6.22;2.55;;;;;;;12.01;100.00;102261.84;4982310;28;20146;-61
2021/09/28 06:26:09;;;;;;;7.88;2.40;;;;;;;12.10;100.00;102260.28;4990985;28;20133;-61
2021/09/28 06:28:36;;;;;;;11.68;2.88;;;;;;;11.81;100.00;102261.56;4993330;28;20092;-61
2021/09/28 06:31:04;;;;;;;8.63;2.55;;;;;;;12.25;100.00;102264.31;4976141;28;20117;-62
2021/09/28 06:33:30;;;;;;;20.60;10.73;;;;;;;12.52;100.00;102258.63;4983000;28;20050;-61
2021/09/28 06:35:57;;;;;;;18.27;7.72;;;;;;;12.94;96.29;102266.66;4980479;28;20141;-61
2021/09/28 06:38:23;;;;;;;13.73;4.75;;;;;;;13.22;94.13;102269.63;4987234;28;20562;-62
2021/09/28 06:40:50;;;;;;;7.88;3.22;;;;;;;13.29;93.66;102275.19;4980534;28;20625;-62
2021/09/28 06:43:17;;;;;;;10.20;3.03;;;;;;;12.33;100.00;102277.72;4984285;28;20486;-62
2021/09/28 06:45:43;;;;;;;10.90;3.08;;;;;;;11.60;100.00;102279.00;4978837;28;20142;-61
2021/09/28 06:48:10;;;;;;;7.22;2.65;;;;;;;11.22;100.00;102274.88;4970672;28;20108;-62
2021/09/28 06:50:36;;;;;;;6.25;2.55;;;;;;;11.05;100.00;102276.97;4987171;28;20050;-60
2021/09/28 06:53:03;;;;;;;11.68;3.83;;;;;;;10.94;100.00;102276.06;4985196;28;20076;-63
2021/09/28 06:55:30;;;;;;;10.80;3.30;;;;;;;10.90;100.00;102278.09;4995043;28;20050;-61
2021/09/28 06:57:57;;;;;;;13.68;3.15;;;;;;;10.87;100.00;102266.03;4982644;28;20053;-62
2021/09/28 07:00:23;;;;;;;11.85;3.08;;;;;;;10.90;100.00;102272.84;4982635;28;20517;-62
2021/09/28 07:02:50;;;;;;;11.60;3.03;;;;;;;10.95;100.00;102270.72;4989412;28;20164;-62
2021/09/28 07:05:17;;;;;;;9.43;2.85;;;;;;;11.21;100.00;102271.41;4989026;28;20105;-62
2021/09/28 07:07:44;;;;;;;17.10;4.78;;;;;;;11.17;100.00;102275.22;4995405;28;20634;-62
2021/09/28 07:10:10;;;;;;;11.43;3.50;;;;;;;11.21;100.00;102274.03;4989108;28;20112;-60
2021/09/28 07:12:37;;;;;;;13.02;3.58;;;;;;;11.25;100.00;102280.75;4991672;28;20058;-62
2021/09/28 07:15:07;;;;;;;8.30;2.33;;;;;;;11.87;100.00;102273.41;4984212;28;20161;-62
2021/09/28 07:17:34;;;;;;;12.52;2.55;;;;;;;12.20;100.00;102283.09;4989039;28;20081;-62
2021/09/28 07:20:03;;;;;;;8.27;2.78;;;;;;;11.75;100.00;102290.97;4996447;28;20120;-62
2021/09/28 07:22:31;;;;;;;17.02;3.47;;;;;;;11.81;100.00;102285.25;4983698;28;20569;-61
2021/09/28 07:24:58;;;;;;;13.85;3.30;;;;;;;11.71;100.00;102292.16;4988894;28;20132;-62
2021/09/28 07:27:40;;;;;;;12.48;3.20;;;;;;;11.66;100.00;102299.56;4974479;28;20274;-62
2021/09/28 07:30:07;;;;;;;12.52;3.53;;;;;;;11.64;100.00;102298.84;4987853;28;20141;-60
2021/09/28 07:32:35;;;;;;;8.63;3.30;;;;;;;11.72;100.00;102300.88;4985165;28;20423;-62
2021/09/28 07:35:03;;;;;;;9.32;2.88;;;;;;;12.83;100.00;102300.91;4992235;28;20137;-62
2021/09/28 07:37:29;;;;;;;13.18;3.38;;;;;;;13.79;100.00;102305.22;4991307;28;20071;-62
2021/09/28 07:39:57;;;;;;;15.07;4.18;;;;;;;12.51;100.00;102304.38;4991047;28;20160;-62
2021/09/28 07:42:25;;;;;;;11.60;3.40;;;;;;;12.36;100.00;102308.22;4988511;28;20058;-62
2021/09/28 07:44:53;;;;;;;13.88;3.80;;;;;;;12.11;100.00;102307.50;4984156;28;20081;-62
2021/09/28 07:47:20;;;;;;;12.77;3.27;;;;;;;12.71;100.00;102309.81;4989517;28;20097;-62
2021/09/28 07:49:46;;;;;;;14.00;4.13;;;;;;;12.57;100.00;102300.41;4982464;28;20149;-62
2021/09/28 07:52:14;;;;;;;9.82;2.95;;;;;;;13.51;100.00;102305.91;4989744;28;20093;-62
2021/09/28 07:54:40;;;;;;;14.15;3.53;;;;;;;13.73;100.00;102310.19;4981900;28;20196;-62
2021/09/28 07:57:08;;;;;;;18.45;3.70;;;;;;;13.29;100.00;102310.31;4983942;28;20081;-62
2021/09/28 07:59:35;;;;;;;12.38;4.10;;;;;;;14.01;100.00;102314.78;4988628;28;20070;-61
2021/09/28 08:02:02;;;;;;;13.13;3.33;;;;;;;13.86;100.00;102308.19;4981836;28;20453;-62
2021/09/28 08:04:28;;;;;;;11.13;3.58;;;;;;;14.02;100.00;102310.34;4989468;28;20392;-62
2021/09/28 08:06:55;;;;;;;13.82;3.40;;;;;;;13.94;100.00;102312.81;4989728;28;20642;-62
2021/09/28 08:09:22;;;;;;;12.35;3.78;;;;;;;14.19;100.00;102317.63;4982087;28;20117;-62
2021/09/28 08:11:48;;;;;;;17.38;3.88;;;;;;;14.17;100.00;102318.72;4979713;28;20161;-62
2021/09/28 08:14:15;;;;;;;16.42;4.07;;;;;;;14.38;98.13;102316.00;4989460;28;20454;-61
2021/09/28 08:16:41;;;;;;;13.65;3.30;;;;;;;14.82;95.41;102312.09;4996479;28;20085;-63
2021/09/28 08:19:08;;;;;;;16.25;4.00;;;;;;;14.87;94.45;102311.66;4981775;28;20068;-61
2021/09/28 08:21:34;;;;;;;11.80;4.10;;;;;;;14.61;96.67;102316.66;4984153;28;20097;-62
2021/09/28 08:24:01;;;;;;;19.25;3.78;;;;;;;14.75;97.36;102312.78;4976717;28;20157;-62
2021/09/28 08:29:10;;;;;;;15.45;3.58;;;;;;;15.12;93.00;102318.22;4983595;28;20120;-61
2021/09/28 08:31:42;;;;;;;13.00;3.33;;;;;;;15.28;95.10;102311.53;4986411;28;20112;-62
2021/09/28 08:34:10;;;;;;;15.25;5.00;;;;;;;14.39;100.00;102315.03;4990170;28;20053;-62
2021/09/28 08:36:37;;;;;;;21.23;3.72;;;;;;;13.89;100.00;102307.06;4986640;28;20453;-62
2021/09/28 08:39:06;;;;;;;16.55;4.78;;;;;;;13.75;100.00;102314.34;4985178;28;20576;-62
2021/09/28 08:41:32;;;;;;;;;;;;;;;13.89;100.00;102310.53;4975004;28;20347;-62
2021/09/28 08:43:58;;;;;;;15.60;3.50;;;;;;;14.36;100.00;102302.09;4990238;28;19932;-62
2021/09/28 08:46:25;;;;;;;16.95;3.92;;;;;;;13.99;100.00;102311.41;4978860;28;20133;-62
2021/09/28 08:48:52;;;;;;;18.05;4.25;;;;;;;15.23;98.26;102306.66;4991321;28;20518;-62
2021/09/28 08:51:18;;;;;;;15.07;3.65;;;;;;;14.93;96.67;102302.34;4981233;28;20077;-62
2021/09/28 08:53:50;;;;;;;19.73;3.50;;;;;;;14.93;96.81;102310.28;4982625;28;20563;-62
2021/09/28 08:56:17;;;;;;;16.05;3.92;;;;;;;14.67;99.41;102308.16;4987424;28;20077;-62
2021/09/28 08:58:59;;;;;;;15.50;4.78;;;;;;;15.18;98.37;102296.50;4983588;28;20050;-62
2021/09/28 09:01:28;;;;;;;14.77;4.30;;;;;;;15.18;96.60;102306.25;4987847;28;20108;-62
2021/09/28 09:03:55;;;;;;;16.02;3.72;;;;;;;15.60;94.92;102301.44;4977216;28;20240;-62
2021/09/28 09:06:34;;;;;;;14.68;3.75;;;;;;;16.05;92.61;102299.06;4991028;28;20067;-62
2021/09/28 09:09:02;;;;;;;11.73;3.13;;;;;;;15.01;99.68;102303.34;4978793;28;20054;-62
2021/09/28 09:11:43;;;;;;;13.80;3.55;;;;;;;14.82;100.00;102300.69;4986291;28;20082;-62
2021/09/28 09:14:12;;;;;;;14.82;3.50;;;;;;;14.71;98.08;102304.28;4991534;28;20089;-62
2021/09/28 09:16:41;;;;;;;19.15;3.03;;;;;;;15.36;93.37;102296.59;4983597;28;20154;-62
2021/09/28 09:19:22;;;;;;;17.92;3.63;;;;;;;16.15;91.96;102299.84;4984627;28;20231;-62
2021/09/28 09:21:51;;;;;;;13.32;2.97;;;;;;;16.30;89.16;102298.38;4985770;28;20129;-62
2021/09/28 09:24:57;;;;;;;12.30;3.70;;;;;;;16.04;89.64;102298.25;4987904;28;20050;-62
2021/09/28 09:27:33;;;;;;;16.35;3.40;;;;;;;16.25;91.17;102300.66;4985227;28;20511;-62
2021/09/28 09:30:16;;;;;;;17.58;3.72;;;;;;;16.05;89.36;102293.78;4982739;28;20129;-61
2021/09/28 09:32:44;;;;;;;15.50;3.53;;;;;;;16.01;95.13;102291.44;4978428;28;20069;-62
2021/09/28 09:35:17;;;;;;;19.05;3.28;;;;;;;16.61;90.24;102287.47;4986192;28;20396;-62
2021/09/28 09:37:44;;;;;;;17.65;3.42;;;;;;;16.91;86.70;102288.91;4984308;28;20137;-61
2021/09/28 09:40:11;;;;;;;12.63;3.17;;;;;;;17.45;83.27;102285.38;4997816;28;20054;-61
2021/09/28 09:42:54;;;;;;;14.83;3.27;;;;;;;17.41;83.29;102278.72;4994878;28;20328;-62
2021/09/28 09:45:25;;;;;;;17.75;3.75;;;;;;;17.24;86.05;102285.72;4984947;28;21094;-62
2021/09/28 09:47:51;;;;;;;20.10;3.70;;;;;;;17.52;83.26;102281.09;4989171;28;20148;-62
2021/09/28 09:50:19;;;;;;;12.02;3.28;;;;;;;17.27;85.11;102288.03;4978990;28;20475;-60
2021/09/28 09:53:08;;;;;;;;;;;;;;;17.09;83.45;102274.81;4990651;28;20054;-61
2021/09/28 09:55:35;;;;;;;;;;;;;;;16.77;86.81;102277.00;4984067;28;19937;-62
2021/09/28 09:58:03;;;;;;;15.60;3.27;;;;;;;16.69;87.25;102268.16;4982546;28;20302;-61
2021/09/28 10:00:29;;;;;;;15.50;3.10;;;;;;;16.73;87.65;102262.41;4977551;28;20464;-62
2021/09/28 10:02:56;;;;;;;17.15;3.63;;;;;;;16.77;86.23;102266.41;4993323;28;20284;-62
2021/09/28 10:05:24;;;;;;;15.20;3.33;;;;;;;17.03;86.15;102272.78;4992057;28;20128;-60
2021/09/28 10:07:52;;;;;;;16.42;3.50;;;;;;;17.35;86.01;102264.25;4984716;28;20919;-61
2021/09/28 10:10:19;;;;;;;10.25;2.83;;;;;;;17.09;85.70;102262.41;4981831;28;20125;-62
2021/09/28 10:12:46;;;;;;;14.25;3.25;;;;;;;17.13;84.48;102266.44;4979421;28;20558;-62
2021/09/28 10:15:14;;;;;;;14.82;2.78;;;;;;;17.26;85.34;102266.00;4990539;28;20133;-62
2021/09/28 10:17:43;;;;;;;;;;;;;;;17.28;80.59;102271.16;4983574;28;20101;-62
2021/09/28 10:20:30;;;;;;;16.40;3.05;;;;;;;17.57;85.51;102261.06;4984193;28;19925;-62
2021/09/28 10:22:59;;;;;;;15.23;2.50;;;;;;;17.66;81.80;102255.78;4988786;28;20763;-63
2021/09/28 10:25:35;;;;;;;13.02;2.60;;;;;;;17.86;80.73;102253.78;4992900;28;20792;-62
2021/09/28 10:28:04;;;;;;;27.27;3.15;;;;;;;17.91;80.24;102249.63;4983802;28;20494;-60
2021/09/28 10:30:31;;;;;;;14.68;2.53;;;;;;;17.91;78.61;102251.47;4978521;28;20061;-62
2021/09/28 10:32:59;;;;;;;22.50;2.40;;;;;;;18.02;77.23;102243.22;4988154;28;20061;-61
2021/09/28 10:35:26;;;;;;;13.05;2.78;;;;;;;18.12;77.45;102241.25;4976033;28;20136;-61
2021/09/28 10:37:59;;;;;;;16.83;2.95;;;;;;;18.35;77.04;102235.34;4979448;28;20209;-62
2021/09/28 10:40:47;;;;;;;18.08;2.28;;;;;;;18.57;75.63;102239.16;4979636;28;20434;-61
2021/09/28 10:43:27;;;;;;;;;;;;;;;20.49;68.85;102228.47;4984121;28;20057;-62
2021/09/28 10:45:54;;;;;;;12.68;2.45;;;;;;;19.64;71.97;102229.25;4988004;28;19968;-63
2021/09/28 10:48:23;;;;;;;16.67;2.83;;;;;;;19.20;71.78;102226.22;4989227;28;20068;-63
2021/09/28 10:51:06;;;;;;;15.90;2.63;;;;;;;19.07;71.34;102230.22;4986856;28;20050;-63
2021/09/28 10:53:35;;;;;;;14.60;2.50;;;;;;;19.30;70.57;102225.00;4983443;28;20574;-61
2021/09/28 10:56:04;;;;;;;15.52;2.33;;;;;;;19.47;68.62;102217.81;4990660;28;20104;-63
2021/09/28 10:58:50;;;;;;;12.93;2.15;;;;;;;19.38;69.63;102218.84;4979633;28;20141;-62
2021/09/28 11:01:18;;;;;;;12.20;2.22;;;;;;;19.27;69.69;102219.22;4987625;28;20050;-61
2021/09/28 11:03:55;;;;;;;;;;;;;;;19.95;67.98;102212.50;4978590;28;20061;-63
2021/09/28 11:06:40;;;;;;;14.35;2.35;;;;;;;19.67;69.05;102212.09;4982942;28;19925;-63
2021/09/28 11:09:07;;;;;;;19.05;3.00;;;;;;;19.48;70.44;102206.19;4982065;28;20464;-63
2021/09/28 11:11:34;;;;;;;16.83;2.35;;;;;;;19.62;70.33;102209.97;4987323;28;20042;-63
2021/09/28 11:14:03;;;;;;;12.32;2.50;;;;;;;19.80;70.22;102206.22;4987794;28;21025;-63
2021/09/28 11:16:44;;;;;;;19.55;3.03;;;;;;;19.93;69.38;102199.38;4984940;28;20108;-63
2021/09/28 11:19:11;;;;;;;13.25;2.75;;;;;;;20.09;68.80;102189.59;4988073;28;20054;-63
2021/09/28 11:21:43;;;;;;;13.75;2.40;;;;;;;20.12;68.08;102186.59;4977398;28;20097;-61